sensor_id;sensor_type;location;lat;lon;timestamp;P1;durP1;ratioP1;P2;durP2;ratioP2
84766;SDS011;74995;49.824;10.994;2024-03-02T00:02:06;13.13;;;7.27;;
84766;SDS011;74995;49.824;10.994;2024-03-02T00:06:57;14.20;;;8.17;;
84766;SDS011;74995;49.824;10.994;2024-03-02T00:09:22;18.15;;;9.70;;
84766;SDS011;74995;49.824;10.994;2024-03-02T00:14:13;15.03;;;8.63;;
84766;SDS011;74995;49.824;10.994;2024-03-02T00:16:39;16.60;;;9.00;;
84766;SDS011;74995;49.824;10.994;2024-03-02T00:21:30;14.80;;;8.60;;
84766;SDS011;74995;49.824;10.994;2024-03-02T00:26:22;8.88;;;5.32;;
84766;SDS011;74995;49.824;10.994;2024-03-02T00:31:15;8.38;;;5.40;;
84766;SDS011;74995;49.824;10.994;2024-03-02T00:33:45;9.60;;;6.22;;
84766;SDS011;74995;49.824;10.994;2024-03-02T00:36:12;10.57;;;4.90;;
84766;SDS011;74995;49.824;10.994;2024-03-02T00:38:44;8.30;;;5.00;;
84766;SDS011;74995;49.824;10.994;2024-03-02T00:41:15;10.00;;;5.70;;
84766;SDS011;74995;49.824;10.994;2024-03-02T00:43:47;10.27;;;6.03;;
84766;SDS011;74995;49.824;10.994;2024-03-02T00:46:36;6.72;;;4.50;;
84766;SDS011;74995;49.824;10.994;2024-03-02T00:49:11;14.05;;;8.48;;
84766;SDS011;74995;49.824;10.994;2024-03-02T00:51:46;8.45;;;5.50;;
84766;SDS011;74995;49.824;10.994;2024-03-02T00:54:14;9.00;;;5.10;;
84766;SDS011;74995;49.824;10.994;2024-03-02T00:59:06;8.55;;;5.22;;
84766;SDS011;74995;49.824;10.994;2024-03-02T01:01:31;8.80;;;5.47;;
84766;SDS011;74995;49.824;10.994;2024-03-02T01:03:56;13.90;;;7.13;;
84766;SDS011;74995;49.824;10.994;2024-03-02T01:08:47;15.32;;;9.70;;
84766;SDS011;74995;49.824;10.994;2024-03-02T01:11:16;8.95;;;5.18;;
84766;SDS011;74995;49.824;10.994;2024-03-02T01:13:41;12.63;;;8.15;;
84766;SDS011;74995;49.824;10.994;2024-03-02T01:18:32;12.53;;;6.97;;
84766;SDS011;74995;49.824;10.994;2024-03-02T01:23:23;15.05;;;8.73;;
84766;SDS011;74995;49.824;10.994;2024-03-02T01:25:49;14.00;;;8.57;;
84766;SDS011;74995;49.824;10.994;2024-03-02T01:28:15;16.02;;;8.57;;
84766;SDS011;74995;49.824;10.994;2024-03-02T01:33:06;11.52;;;7.13;;
84766;SDS011;74995;49.824;10.994;2024-03-02T01:37:58;15.13;;;8.50;;
84766;SDS011;74995;49.824;10.994;2024-03-02T01:40:23;13.65;;;8.23;;
84766;SDS011;74995;49.824;10.994;2024-03-02T01:42:51;12.55;;;7.40;;
84766;SDS011;74995;49.824;10.994;2024-03-02T01:45:17;14.45;;;8.25;;
84766;SDS011;74995;49.824;10.994;2024-03-02T01:50:08;17.83;;;9.03;;
84766;SDS011;74995;49.824;10.994;2024-03-02T01:52:36;17.40;;;9.82;;
84766;SDS011;74995;49.824;10.994;2024-03-02T01:57:27;13.75;;;8.88;;
84766;SDS011;74995;49.824;10.994;2024-03-02T01:59:52;18.33;;;9.68;;
84766;SDS011;74995;49.824;10.994;2024-03-02T02:04:43;15.00;;;9.30;;
84766;SDS011;74995;49.824;10.994;2024-03-02T02:09:34;18.00;;;9.32;;
84766;SDS011;74995;49.824;10.994;2024-03-02T02:14:26;17.50;;;9.57;;
84766;SDS011;74995;49.824;10.994;2024-03-02T02:16:51;11.43;;;7.43;;
84766;SDS011;74995;49.824;10.994;2024-03-02T02:19:17;14.77;;;7.53;;
84766;SDS011;74995;49.824;10.994;2024-03-02T02:24:08;12.48;;;6.70;;
84766;SDS011;74995;49.824;10.994;2024-03-02T02:28:58;13.73;;;7.13;;
84766;SDS011;74995;49.824;10.994;2024-03-02T02:33:49;13.43;;;8.40;;
84766;SDS011;74995;49.824;10.994;2024-03-02T02:38:40;10.77;;;6.37;;
84766;SDS011;74995;49.824;10.994;2024-03-02T02:41:10;10.68;;;5.70;;
84766;SDS011;74995;49.824;10.994;2024-03-02T02:46:00;9.27;;;5.53;;
84766;SDS011;74995;49.824;10.994;2024-03-02T02:50:51;11.43;;;7.27;;
84766;SDS011;74995;49.824;10.994;2024-03-02T02:55:41;12.23;;;7.00;;
84766;SDS011;74995;49.824;10.994;2024-03-02T02:58:08;9.50;;;6.20;;
84766;SDS011;74995;49.824;10.994;2024-03-02T03:00:34;15.13;;;8.63;;
84766;SDS011;74995;49.824;10.994;2024-03-02T03:05:25;9.83;;;6.47;;
84766;SDS011;74995;49.824;10.994;2024-03-02T03:10:16;12.80;;;7.20;;
84766;SDS011;74995;49.824;10.994;2024-03-02T03:12:42;10.60;;;6.43;;
84766;SDS011;74995;49.824;10.994;2024-03-02T03:17:33;13.52;;;7.90;;
84766;SDS011;74995;49.824;10.994;2024-03-02T03:22:25;13.13;;;8.13;;
84766;SDS011;74995;49.824;10.994;2024-03-02T03:27:16;13.27;;;7.57;;
84766;SDS011;74995;49.824;10.994;2024-03-02T03:29:41;8.85;;;5.85;;
84766;SDS011;74995;49.824;10.994;2024-03-02T03:34:32;9.07;;;5.67;;
84766;SDS011;74995;49.824;10.994;2024-03-02T03:36:58;14.07;;;8.85;;
84766;SDS011;74995;49.824;10.994;2024-03-02T03:41:49;9.87;;;6.53;;
84766;SDS011;74995;49.824;10.994;2024-03-02T03:44:14;14.23;;;8.48;;
84766;SDS011;74995;49.824;10.994;2024-03-02T03:49:05;9.77;;;6.17;;
84766;SDS011;74995;49.824;10.994;2024-03-02T03:53:56;11.57;;;7.00;;
84766;SDS011;74995;49.824;10.994;2024-03-02T03:56:21;13.13;;;7.70;;
84766;SDS011;74995;49.824;10.994;2024-03-02T04:01:12;12.83;;;7.87;;
84766;SDS011;74995;49.824;10.994;2024-03-02T04:06:03;13.60;;;7.63;;
84766;SDS011;74995;49.824;10.994;2024-03-02T04:08:28;11.80;;;6.82;;
84766;SDS011;74995;49.824;10.994;2024-03-02T04:13:19;14.80;;;9.17;;
84766;SDS011;74995;49.824;10.994;2024-03-02T04:18:09;16.90;;;8.10;;
84766;SDS011;74995;49.824;10.994;2024-03-02T04:23:00;15.48;;;8.20;;
84766;SDS011;74995;49.824;10.994;2024-03-02T04:25:25;15.32;;;8.43;;
84766;SDS011;74995;49.824;10.994;2024-03-02T04:30:16;15.03;;;8.40;;
84766;SDS011;74995;49.824;10.994;2024-03-02T04:35:11;16.70;;;9.38;;
84766;SDS011;74995;49.824;10.994;2024-03-02T04:37:37;14.40;;;9.18;;
84766;SDS011;74995;49.824;10.994;2024-03-02T04:42:28;15.73;;;8.13;;
84766;SDS011;74995;49.824;10.994;2024-03-02T04:44:53;17.27;;;8.43;;
84766;SDS011;74995;49.824;10.994;2024-03-02T04:49:43;12.50;;;7.80;;
84766;SDS011;74995;49.824;10.994;2024-03-02T04:52:09;11.98;;;6.32;;
84766;SDS011;74995;49.824;10.994;2024-03-02T04:57:20;16.92;;;7.88;;
84766;SDS011;74995;49.824;10.994;2024-03-02T05:02:10;14.03;;;8.07;;
84766;SDS011;74995;49.824;10.994;2024-03-02T05:07:01;14.77;;;8.53;;
84766;SDS011;74995;49.824;10.994;2024-03-02T05:11:51;13.77;;;7.73;;
84766;SDS011;74995;49.824;10.994;2024-03-02T05:14:36;11.18;;;6.95;;
84766;SDS011;74995;49.824;10.994;2024-03-02T05:17:02;11.73;;;6.68;;
84766;SDS011;74995;49.824;10.994;2024-03-02T05:21:52;13.97;;;7.37;;
84766;SDS011;74995;49.824;10.994;2024-03-02T05:26:43;12.37;;;7.10;;
84766;SDS011;74995;49.824;10.994;2024-03-02T05:29:08;13.40;;;8.20;;
84766;SDS011;74995;49.824;10.994;2024-03-02T05:33:59;14.60;;;7.20;;
84766;SDS011;74995;49.824;10.994;2024-03-02T05:36:24;10.43;;;6.93;;
84766;SDS011;74995;49.824;10.994;2024-03-02T05:38:49;13.40;;;6.47;;
84766;SDS011;74995;49.824;10.994;2024-03-02T05:43:40;14.37;;;7.93;;
84766;SDS011;74995;49.824;10.994;2024-03-02T05:46:05;14.85;;;6.78;;
84766;SDS011;74995;49.824;10.994;2024-03-02T05:50:56;13.53;;;8.17;;
84766;SDS011;74995;49.824;10.994;2024-03-02T05:55:46;14.17;;;7.47;;
84766;SDS011;74995;49.824;10.994;2024-03-02T06:00:56;12.80;;;7.03;;
84766;SDS011;74995;49.824;10.994;2024-03-02T06:05:47;12.50;;;7.47;;
84766;SDS011;74995;49.824;10.994;2024-03-02T06:08:14;7.20;;;5.18;;
84766;SDS011;74995;49.824;10.994;2024-03-02T06:13:05;11.90;;;7.03;;
84766;SDS011;74995;49.824;10.994;2024-03-02T06:17:55;13.90;;;7.00;;
84766;SDS011;74995;49.824;10.994;2024-03-02T06:22:46;11.65;;;6.68;;
84766;SDS011;74995;49.824;10.994;2024-03-02T06:27:38;12.30;;;7.13;;
84766;SDS011;74995;49.824;10.994;2024-03-02T06:32:29;12.63;;;6.97;;
84766;SDS011;74995;49.824;10.994;2024-03-02T06:37:19;17.20;;;8.57;;
84766;SDS011;74995;49.824;10.994;2024-03-02T06:42:10;19.13;;;8.60;;
84766;SDS011;74995;49.824;10.994;2024-03-02T06:47:01;11.27;;;5.83;;
84766;SDS011;74995;49.824;10.994;2024-03-02T06:51:51;10.93;;;6.87;;
84766;SDS011;74995;49.824;10.994;2024-03-02T06:56:42;14.77;;;8.23;;
84766;SDS011;74995;49.824;10.994;2024-03-02T07:01:32;14.00;;;6.87;;
84766;SDS011;74995;49.824;10.994;2024-03-02T07:06:23;12.73;;;7.43;;
84766;SDS011;74995;49.824;10.994;2024-03-02T07:11:13;9.53;;;5.77;;
84766;SDS011;74995;49.824;10.994;2024-03-02T07:16:04;6.70;;;4.87;;
84766;SDS011;74995;49.824;10.994;2024-03-02T07:20:58;7.00;;;3.65;;
84766;SDS011;74995;49.824;10.994;2024-03-02T07:23:25;10.57;;;7.10;;
84766;SDS011;74995;49.824;10.994;2024-03-02T07:25:55;10.35;;;5.82;;
84766;SDS011;74995;49.824;10.994;2024-03-02T07:28:21;9.00;;;5.40;;
84766;SDS011;74995;49.824;10.994;2024-03-02T07:30:47;8.60;;;4.88;;
84766;SDS011;74995;49.824;10.994;2024-03-02T07:33:22;8.98;;;5.07;;
84766;SDS011;74995;49.824;10.994;2024-03-02T07:38:13;8.33;;;4.57;;
84766;SDS011;74995;49.824;10.994;2024-03-02T07:40:38;11.30;;;5.78;;
84766;SDS011;74995;49.824;10.994;2024-03-02T07:43:03;8.63;;;5.38;;
84766;SDS011;74995;49.824;10.994;2024-03-02T07:47:55;8.67;;;4.73;;
84766;SDS011;74995;49.824;10.994;2024-03-02T07:52:45;8.27;;;4.53;;
84766;SDS011;74995;49.824;10.994;2024-03-02T07:55:10;8.25;;;5.63;;
84766;SDS011;74995;49.824;10.994;2024-03-02T07:57:36;8.48;;;5.22;;
84766;SDS011;74995;49.824;10.994;2024-03-02T08:00:01;8.20;;;4.68;;
84766;SDS011;74995;49.824;10.994;2024-03-02T08:02:27;8.50;;;5.10;;
84766;SDS011;74995;49.824;10.994;2024-03-02T08:07:18;9.77;;;5.43;;
84766;SDS011;74995;49.824;10.994;2024-03-02T08:12:08;8.63;;;5.33;;
84766;SDS011;74995;49.824;10.994;2024-03-02T08:16:59;11.47;;;6.83;;
84766;SDS011;74995;49.824;10.994;2024-03-02T08:19:26;10.63;;;6.10;;
84766;SDS011;74995;49.824;10.994;2024-03-02T08:24:17;10.67;;;6.50;;
84766;SDS011;74995;49.824;10.994;2024-03-02T08:26:42;11.73;;;5.90;;
84766;SDS011;74995;49.824;10.994;2024-03-02T08:31:33;9.10;;;5.43;;
84766;SDS011;74995;49.824;10.994;2024-03-02T08:33:58;8.55;;;4.90;;
84766;SDS011;74995;49.824;10.994;2024-03-02T08:38:49;11.60;;;6.47;;
84766;SDS011;74995;49.824;10.994;2024-03-02T08:41:15;10.05;;;5.72;;
84766;SDS011;74995;49.824;10.994;2024-03-02T08:46:07;10.60;;;6.70;;
84766;SDS011;74995;49.824;10.994;2024-03-02T08:50:57;14.23;;;7.67;;
84766;SDS011;74995;49.824;10.994;2024-03-02T08:53:23;11.18;;;6.55;;
84766;SDS011;74995;49.824;10.994;2024-03-02T08:55:48;10.60;;;6.72;;
84766;SDS011;74995;49.824;10.994;2024-03-02T09:00:39;10.23;;;6.80;;
84766;SDS011;74995;49.824;10.994;2024-03-02T09:03:05;13.07;;;7.57;;
84766;SDS011;74995;49.824;10.994;2024-03-02T09:07:55;11.47;;;6.33;;
84766;SDS011;74995;49.824;10.994;2024-03-02T09:10:21;12.55;;;6.00;;
84766;SDS011;74995;49.824;10.994;2024-03-02T09:15:11;11.37;;;6.30;;
84766;SDS011;74995;49.824;10.994;2024-03-02T09:20:02;11.17;;;6.37;;
84766;SDS011;74995;49.824;10.994;2024-03-02T09:22:29;11.00;;;6.22;;
84766;SDS011;74995;49.824;10.994;2024-03-02T09:24:54;11.68;;;6.80;;
84766;SDS011;74995;49.824;10.994;2024-03-02T09:27:20;11.15;;;6.65;;
84766;SDS011;74995;49.824;10.994;2024-03-02T09:32:12;11.13;;;6.37;;
84766;SDS011;74995;49.824;10.994;2024-03-02T09:34:39;10.63;;;6.28;;
84766;SDS011;74995;49.824;10.994;2024-03-02T09:37:04;11.90;;;5.90;;
84766;SDS011;74995;49.824;10.994;2024-03-02T09:41:54;10.55;;;5.95;;
84766;SDS011;74995;49.824;10.994;2024-03-02T09:44:20;9.98;;;5.55;;
84766;SDS011;74995;49.824;10.994;2024-03-02T09:46:50;9.48;;;5.38;;
84766;SDS011;74995;49.824;10.994;2024-03-02T09:49:15;9.00;;;5.68;;
84766;SDS011;74995;49.824;10.994;2024-03-02T09:51:41;11.38;;;6.15;;
84766;SDS011;74995;49.824;10.994;2024-03-02T09:54:13;11.77;;;6.82;;
84766;SDS011;74995;49.824;10.994;2024-03-02T09:56:40;9.30;;;5.57;;
84766;SDS011;74995;49.824;10.994;2024-03-02T10:01:31;8.80;;;5.37;;
84766;SDS011;74995;49.824;10.994;2024-03-02T10:03:58;10.15;;;5.75;;
84766;SDS011;74995;49.824;10.994;2024-03-02T10:06:25;8.93;;;5.13;;
84766;SDS011;74995;49.824;10.994;2024-03-02T10:08:52;7.88;;;5.55;;
84766;SDS011;74995;49.824;10.994;2024-03-02T10:14:11;9.77;;;5.72;;
84766;SDS011;74995;49.824;10.994;2024-03-02T10:16:38;8.57;;;4.88;;
84766;SDS011;74995;49.824;10.994;2024-03-02T10:19:21;10.45;;;5.60;;
84766;SDS011;74995;49.824;10.994;2024-03-02T10:21:51;9.63;;;5.43;;
84766;SDS011;74995;49.824;10.994;2024-03-02T10:24:17;8.85;;;4.75;;
84766;SDS011;74995;49.824;10.994;2024-03-02T10:26:44;9.55;;;5.50;;
84766;SDS011;74995;49.824;10.994;2024-03-02T10:29:10;7.05;;;4.68;;
84766;SDS011;74995;49.824;10.994;2024-03-02T10:31:39;8.45;;;4.80;;
84766;SDS011;74995;49.824;10.994;2024-03-02T10:34:05;7.18;;;4.30;;
84766;SDS011;74995;49.824;10.994;2024-03-02T10:36:32;9.23;;;5.22;;
84766;SDS011;74995;49.824;10.994;2024-03-02T10:39:01;8.75;;;5.20;;
84766;SDS011;74995;49.824;10.994;2024-03-02T10:41:27;9.32;;;5.07;;
84766;SDS011;74995;49.824;10.994;2024-03-02T10:43:53;8.85;;;3.90;;
84766;SDS011;74995;49.824;10.994;2024-03-02T10:46:26;7.80;;;4.72;;
84766;SDS011;74995;49.824;10.994;2024-03-02T10:48:54;7.57;;;4.07;;
84766;SDS011;74995;49.824;10.994;2024-03-02T10:51:20;7.40;;;4.35;;
84766;SDS011;74995;49.824;10.994;2024-03-02T10:53:45;7.93;;;4.70;;
84766;SDS011;74995;49.824;10.994;2024-03-02T10:56:10;6.35;;;4.63;;
84766;SDS011;74995;49.824;10.994;2024-03-02T10:58:47;8.38;;;3.83;;
84766;SDS011;74995;49.824;10.994;2024-03-02T11:01:16;6.55;;;4.10;;
84766;SDS011;74995;49.824;10.994;2024-03-02T11:03:42;8.27;;;4.15;;
84766;SDS011;74995;49.824;10.994;2024-03-02T11:06:09;6.95;;;4.20;;
84766;SDS011;74995;49.824;10.994;2024-03-02T11:08:38;5.80;;;3.85;;
84766;SDS011;74995;49.824;10.994;2024-03-02T11:11:10;6.15;;;3.72;;
84766;SDS011;74995;49.824;10.994;2024-03-02T11:13:40;6.72;;;3.72;;
84766;SDS011;74995;49.824;10.994;2024-03-02T11:16:15;5.13;;;3.47;;
84766;SDS011;74995;49.824;10.994;2024-03-02T11:18:52;6.60;;;3.90;;
84766;SDS011;74995;49.824;10.994;2024-03-02T11:21:17;7.68;;;4.25;;
84766;SDS011;74995;49.824;10.994;2024-03-02T11:23:43;5.53;;;3.58;;
84766;SDS011;74995;49.824;10.994;2024-03-02T11:28:44;6.63;;;3.80;;
84766;SDS011;74995;49.824;10.994;2024-03-02T11:31:10;7.75;;;3.75;;
84766;SDS011;74995;49.824;10.994;2024-03-02T11:33:36;6.68;;;3.65;;
84766;SDS011;74995;49.824;10.994;2024-03-02T11:36:01;5.53;;;3.50;;
84766;SDS011;74995;49.824;10.994;2024-03-02T11:38:30;6.55;;;4.28;;
84766;SDS011;74995;49.824;10.994;2024-03-02T11:40:57;7.90;;;4.32;;
84766;SDS011;74995;49.824;10.994;2024-03-02T11:43:25;6.50;;;3.60;;
84766;SDS011;74995;49.824;10.994;2024-03-02T11:45:59;6.38;;;4.00;;
84766;SDS011;74995;49.824;10.994;2024-03-02T11:48:25;6.18;;;3.90;;
84766;SDS011;74995;49.824;10.994;2024-03-02T11:50:51;5.63;;;3.70;;
84766;SDS011;74995;49.824;10.994;2024-03-02T11:53:20;6.47;;;3.92;;
84766;SDS011;74995;49.824;10.994;2024-03-02T11:55:45;6.45;;;3.72;;
84766;SDS011;74995;49.824;10.994;2024-03-02T11:58:11;7.40;;;3.85;;
84766;SDS011;74995;49.824;10.994;2024-03-02T12:00:38;6.05;;;3.50;;
84766;SDS011;74995;49.824;10.994;2024-03-02T12:03:04;5.85;;;3.55;;
84766;SDS011;74995;49.824;10.994;2024-03-02T12:05:30;6.38;;;4.07;;
84766;SDS011;74995;49.824;10.994;2024-03-02T12:07:57;6.88;;;3.85;;
84766;SDS011;74995;49.824;10.994;2024-03-02T12:10:27;5.25;;;3.70;;
84766;SDS011;74995;49.824;10.994;2024-03-02T12:15:29;5.82;;;3.85;;
84766;SDS011;74995;49.824;10.994;2024-03-02T12:17:56;6.72;;;4.25;;
84766;SDS011;74995;49.824;10.994;2024-03-02T12:20:25;6.95;;;4.40;;
84766;SDS011;74995;49.824;10.994;2024-03-02T12:22:53;8.52;;;3.90;;
84766;SDS011;74995;49.824;10.994;2024-03-02T12:25:19;8.73;;;4.90;;
84766;SDS011;74995;49.824;10.994;2024-03-02T12:27:46;6.90;;;4.00;;
84766;SDS011;74995;49.824;10.994;2024-03-02T12:30:13;8.43;;;4.63;;
84766;SDS011;74995;49.824;10.994;2024-03-02T12:32:40;5.97;;;4.35;;
84766;SDS011;74995;49.824;10.994;2024-03-02T12:35:06;7.43;;;3.95;;
84766;SDS011;74995;49.824;10.994;2024-03-02T12:37:31;8.95;;;4.43;;
84766;SDS011;74995;49.824;10.994;2024-03-02T12:39:57;7.65;;;4.40;;
84766;SDS011;74995;49.824;10.994;2024-03-02T12:42:23;6.63;;;4.18;;
84766;SDS011;74995;49.824;10.994;2024-03-02T12:44:51;6.53;;;4.72;;
84766;SDS011;74995;49.824;10.994;2024-03-02T12:47:19;6.13;;;4.25;;
84766;SDS011;74995;49.824;10.994;2024-03-02T12:49:44;6.80;;;4.78;;
84766;SDS011;74995;49.824;10.994;2024-03-02T12:52:11;7.22;;;4.18;;
84766;SDS011;74995;49.824;10.994;2024-03-02T12:54:38;7.10;;;4.20;;
84766;SDS011;74995;49.824;10.994;2024-03-02T12:57:03;7.03;;;4.97;;
84766;SDS011;74995;49.824;10.994;2024-03-02T12:59:29;6.25;;;4.20;;
84766;SDS011;74995;49.824;10.994;2024-03-02T13:01:54;7.10;;;4.28;;
84766;SDS011;74995;49.824;10.994;2024-03-02T13:04:24;7.63;;;4.70;;
84766;SDS011;74995;49.824;10.994;2024-03-02T13:06:50;6.15;;;4.32;;
84766;SDS011;74995;49.824;10.994;2024-03-02T13:09:17;6.50;;;4.25;;
84766;SDS011;74995;49.824;10.994;2024-03-02T13:11:42;4.88;;;3.55;;
84766;SDS011;74995;49.824;10.994;2024-03-02T13:14:08;5.82;;;3.78;;
84766;SDS011;74995;49.824;10.994;2024-03-02T13:16:38;6.88;;;3.67;;
84766;SDS011;74995;49.824;10.994;2024-03-02T13:19:07;4.45;;;3.63;;
84766;SDS011;74995;49.824;10.994;2024-03-02T13:21:33;6.68;;;4.03;;
84766;SDS011;74995;49.824;10.994;2024-03-02T13:23:58;7.18;;;4.07;;
84766;SDS011;74995;49.824;10.994;2024-03-02T13:26:24;7.60;;;4.85;;
84766;SDS011;74995;49.824;10.994;2024-03-02T13:28:49;7.22;;;4.35;;
84766;SDS011;74995;49.824;10.994;2024-03-02T13:31:14;8.07;;;3.88;;
84766;SDS011;74995;49.824;10.994;2024-03-02T13:33:40;6.03;;;3.65;;
84766;SDS011;74995;49.824;10.994;2024-03-02T13:36:05;6.18;;;4.00;;
84766;SDS011;74995;49.824;10.994;2024-03-02T13:38:31;6.78;;;4.00;;
84766;SDS011;74995;49.824;10.994;2024-03-02T13:40:56;5.97;;;3.83;;
84766;SDS011;74995;49.824;10.994;2024-03-02T13:43:21;6.85;;;3.65;;
84766;SDS011;74995;49.824;10.994;2024-03-02T13:45:48;7.50;;;4.28;;
84766;SDS011;74995;49.824;10.994;2024-03-02T13:48:14;8.15;;;4.20;;
84766;SDS011;74995;49.824;10.994;2024-03-02T13:50:39;8.02;;;4.38;;
84766;SDS011;74995;49.824;10.994;2024-03-02T13:53:05;11.32;;;4.53;;
84766;SDS011;74995;49.824;10.994;2024-03-02T13:55:31;7.88;;;3.80;;
84766;SDS011;74995;49.824;10.994;2024-03-02T13:57:58;8.80;;;4.57;;
84766;SDS011;74995;49.824;10.994;2024-03-02T14:00:23;6.53;;;4.00;;
84766;SDS011;74995;49.824;10.994;2024-03-02T14:02:49;10.35;;;4.72;;
84766;SDS011;74995;49.824;10.994;2024-03-02T14:05:15;7.97;;;4.22;;
84766;SDS011;74995;49.824;10.994;2024-03-02T14:07:41;8.00;;;4.43;;
84766;SDS011;74995;49.824;10.994;2024-03-02T14:10:07;6.93;;;4.30;;
84766;SDS011;74995;49.824;10.994;2024-03-02T14:12:32;7.63;;;4.28;;
84766;SDS011;74995;49.824;10.994;2024-03-02T14:14:58;8.73;;;4.95;;
84766;SDS011;74995;49.824;10.994;2024-03-02T14:17:24;7.50;;;4.80;;
84766;SDS011;74995;49.824;10.994;2024-03-02T14:19:50;7.72;;;4.65;;
84766;SDS011;74995;49.824;10.994;2024-03-02T14:22:17;6.38;;;4.03;;
84766;SDS011;74995;49.824;10.994;2024-03-02T14:24:42;8.60;;;4.82;;
84766;SDS011;74995;49.824;10.994;2024-03-02T14:27:08;8.82;;;4.70;;
84766;SDS011;74995;49.824;10.994;2024-03-02T14:29:34;7.97;;;4.88;;
84766;SDS011;74995;49.824;10.994;2024-03-02T14:32:02;7.25;;;4.30;;
84766;SDS011;74995;49.824;10.994;2024-03-02T14:34:28;7.90;;;4.78;;
84766;SDS011;74995;49.824;10.994;2024-03-02T14:36:53;6.85;;;4.13;;
84766;SDS011;74995;49.824;10.994;2024-03-02T14:39:18;8.75;;;5.70;;
84766;SDS011;74995;49.824;10.994;2024-03-02T14:41:44;7.97;;;4.78;;
84766;SDS011;74995;49.824;10.994;2024-03-02T14:44:10;11.05;;;5.47;;
84766;SDS011;74995;49.824;10.994;2024-03-02T14:46:35;7.45;;;4.38;;
84766;SDS011;74995;49.824;10.994;2024-03-02T14:49:01;7.75;;;4.75;;
84766;SDS011;74995;49.824;10.994;2024-03-02T14:51:26;7.95;;;5.07;;
84766;SDS011;74995;49.824;10.994;2024-03-02T14:53:51;8.38;;;5.00;;
84766;SDS011;74995;49.824;10.994;2024-03-02T14:56:17;8.80;;;5.10;;
84766;SDS011;74995;49.824;10.994;2024-03-02T14:58:42;7.75;;;4.22;;
84766;SDS011;74995;49.824;10.994;2024-03-02T15:01:07;6.93;;;4.15;;
84766;SDS011;74995;49.824;10.994;2024-03-02T15:03:34;8.38;;;5.68;;
84766;SDS011;74995;49.824;10.994;2024-03-02T15:06:01;14.02;;;7.75;;
84766;SDS011;74995;49.824;10.994;2024-03-02T15:08:27;10.63;;;5.90;;
84766;SDS011;74995;49.824;10.994;2024-03-02T15:10:52;10.95;;;6.13;;
84766;SDS011;74995;49.824;10.994;2024-03-02T15:13:20;9.85;;;5.68;;
84766;SDS011;74995;49.824;10.994;2024-03-02T15:15:46;8.80;;;5.45;;
84766;SDS011;74995;49.824;10.994;2024-03-02T15:18:11;10.77;;;5.30;;
84766;SDS011;74995;49.824;10.994;2024-03-02T15:20:37;10.50;;;6.85;;
84766;SDS011;74995;49.824;10.994;2024-03-02T15:23:02;12.57;;;6.53;;
84766;SDS011;74995;49.824;10.994;2024-03-02T15:25:28;12.48;;;7.32;;
84766;SDS011;74995;49.824;10.994;2024-03-02T15:27:53;12.98;;;7.03;;
84766;SDS011;74995;49.824;10.994;2024-03-02T15:30:19;13.02;;;6.15;;
84766;SDS011;74995;49.824;10.994;2024-03-02T15:32:44;11.45;;;6.05;;
84766;SDS011;74995;49.824;10.994;2024-03-02T15:35:09;12.57;;;6.20;;
84766;SDS011;74995;49.824;10.994;2024-03-02T15:37:35;12.98;;;5.63;;
84766;SDS011;74995;49.824;10.994;2024-03-02T15:40:00;10.63;;;5.45;;
84766;SDS011;74995;49.824;10.994;2024-03-02T15:42:31;8.57;;;5.03;;
84766;SDS011;74995;49.824;10.994;2024-03-02T15:44:57;11.35;;;5.85;;
84766;SDS011;74995;49.824;10.994;2024-03-02T15:47:23;8.70;;;5.00;;
84766;SDS011;74995;49.824;10.994;2024-03-02T15:49:48;9.32;;;4.68;;
84766;SDS011;74995;49.824;10.994;2024-03-02T15:52:14;9.95;;;5.30;;
84766;SDS011;74995;49.824;10.994;2024-03-02T15:54:43;11.13;;;4.97;;
84766;SDS011;74995;49.824;10.994;2024-03-02T15:57:08;9.50;;;5.15;;
84766;SDS011;74995;49.824;10.994;2024-03-02T15:59:34;10.07;;;5.28;;
84766;SDS011;74995;49.824;10.994;2024-03-02T16:01:59;10.30;;;5.53;;
84766;SDS011;74995;49.824;10.994;2024-03-02T16:04:24;13.07;;;6.40;;
84766;SDS011;74995;49.824;10.994;2024-03-02T16:06:50;10.48;;;5.25;;
84766;SDS011;74995;49.824;10.994;2024-03-02T16:09:15;9.20;;;5.07;;
84766;SDS011;74995;49.824;10.994;2024-03-02T16:11:41;12.40;;;4.80;;
84766;SDS011;74995;49.824;10.994;2024-03-02T16:14:06;11.18;;;5.43;;
84766;SDS011;74995;49.824;10.994;2024-03-02T16:16:31;10.00;;;6.03;;
84766;SDS011;74995;49.824;10.994;2024-03-02T16:18:58;10.35;;;6.20;;
84766;SDS011;74995;49.824;10.994;2024-03-02T16:21:23;8.50;;;4.43;;
84766;SDS011;74995;49.824;10.994;2024-03-02T16:23:50;12.70;;;6.20;;
84766;SDS011;74995;49.824;10.994;2024-03-02T16:26:16;9.23;;;4.93;;
84766;SDS011;74995;49.824;10.994;2024-03-02T16:28:42;8.52;;;5.30;;
84766;SDS011;74995;49.824;10.994;2024-03-02T16:31:07;9.38;;;4.65;;
84766;SDS011;74995;49.824;10.994;2024-03-02T16:33:34;11.38;;;5.75;;
84766;SDS011;74995;49.824;10.994;2024-03-02T16:35:59;10.95;;;6.15;;
84766;SDS011;74995;49.824;10.994;2024-03-02T16:38:24;13.77;;;6.65;;
84766;SDS011;74995;49.824;10.994;2024-03-02T16:40:50;7.95;;;4.93;;
84766;SDS011;74995;49.824;10.994;2024-03-02T16:43:15;12.68;;;7.07;;
84766;SDS011;74995;49.824;10.994;2024-03-02T16:45:40;9.55;;;5.43;;
84766;SDS011;74995;49.824;10.994;2024-03-02T16:48:06;10.40;;;5.95;;
84766;SDS011;74995;49.824;10.994;2024-03-02T16:50:31;11.02;;;6.43;;
84766;SDS011;74995;49.824;10.994;2024-03-02T16:52:57;10.20;;;5.63;;
84766;SDS011;74995;49.824;10.994;2024-03-02T16:55:22;11.38;;;5.70;;
84766;SDS011;74995;49.824;10.994;2024-03-02T16:57:48;12.95;;;5.55;;
84766;SDS011;74995;49.824;10.994;2024-03-02T17:00:13;9.88;;;5.70;;
84766;SDS011;74995;49.824;10.994;2024-03-02T17:02:39;9.75;;;5.50;;
84766;SDS011;74995;49.824;10.994;2024-03-02T17:05:04;9.80;;;5.35;;
84766;SDS011;74995;49.824;10.994;2024-03-02T17:07:30;9.75;;;5.75;;
84766;SDS011;74995;49.824;10.994;2024-03-02T17:09:56;9.27;;;6.00;;
84766;SDS011;74995;49.824;10.994;2024-03-02T17:12:24;8.93;;;5.63;;
84766;SDS011;74995;49.824;10.994;2024-03-02T17:14:50;9.02;;;5.78;;
84766;SDS011;74995;49.824;10.994;2024-03-02T17:17:15;10.98;;;6.18;;
84766;SDS011;74995;49.824;10.994;2024-03-02T17:19:42;9.45;;;5.22;;
84766;SDS011;74995;49.824;10.994;2024-03-02T17:22:08;12.50;;;7.38;;
84766;SDS011;74995;49.824;10.994;2024-03-02T17:24:33;8.23;;;5.45;;
84766;SDS011;74995;49.824;10.994;2024-03-02T17:26:59;10.60;;;5.85;;
84766;SDS011;74995;49.824;10.994;2024-03-02T17:29:24;9.85;;;5.88;;
84766;SDS011;74995;49.824;10.994;2024-03-02T17:31:50;8.90;;;5.15;;
84766;SDS011;74995;49.824;10.994;2024-03-02T17:34:15;10.02;;;5.15;;
84766;SDS011;74995;49.824;10.994;2024-03-02T17:36:41;11.23;;;6.50;;
84766;SDS011;74995;49.824;10.994;2024-03-02T17:39:06;10.75;;;5.28;;
84766;SDS011;74995;49.824;10.994;2024-03-02T17:41:31;12.57;;;6.75;;
84766;SDS011;74995;49.824;10.994;2024-03-02T17:43:57;13.95;;;7.05;;
84766;SDS011;74995;49.824;10.994;2024-03-02T17:46:22;9.48;;;5.60;;
84766;SDS011;74995;49.824;10.994;2024-03-02T17:48:47;12.43;;;6.10;;
84766;SDS011;74995;49.824;10.994;2024-03-02T17:51:13;10.27;;;5.28;;
84766;SDS011;74995;49.824;10.994;2024-03-02T17:53:38;9.95;;;5.85;;
84766;SDS011;74995;49.824;10.994;2024-03-02T17:56:04;11.70;;;6.05;;
84766;SDS011;74995;49.824;10.994;2024-03-02T17:58:30;9.40;;;4.88;;
84766;SDS011;74995;49.824;10.994;2024-03-02T18:00:57;7.78;;;4.93;;